TimeCDT,TemperatureF,Dew PointF,Humidity,Sea Level PressureIn,VisibilityMPH,Wind Direction,Wind SpeedMPH,Gust SpeedMPH,PrecipitationIn,Events,Conditions,WindDirDegrees,DateUTC
12:53 AM,66.0,57.9,75,30.09,10.0,East,3.5,-,N/A,,Clear,100,2013-07-02 05:53:00
1:53 AM,64.0,57.9,80,30.09,10.0,Calm,Calm,-,N/A,,Clear,0,2013-07-02 06:53:00
2:53 AM,62.1,57.9,86,30.08,10.0,Calm,Calm,-,N/A,,Clear,0,2013-07-02 07:53:00
3:53 AM,62.1,57.0,84,30.08,10.0,ESE,4.6,-,N/A,,Clear,110,2013-07-02 08:53:00
4:53 AM,60.1,55.9,86,30.09,10.0,East,3.5,-,N/A,,Clear,90,2013-07-02 09:53:00
5:53 AM,60.1,57.9,93,30.10,7.0,ESE,5.8,-,N/A,,Scattered Clouds,110,2013-07-02 10:53:00
6:53 AM,62.1,59.0,90,30.10,9.0,Calm,Calm,-,N/A,,Clear,0,2013-07-02 11:53:00
7:53 AM,64.0,57.9,80,30.10,10.0,ESE,6.9,-,N/A,,Clear,110,2013-07-02 12:53:00
9:53 AM,72.0,57.9,61,30.09,-9999.0,North,-9999.0,-,N/A,,Clear,0,2013-07-02 14:53:00
10:53 AM,75.9,57.0,52,30.09,10.0,Variable,3.5,-,N/A,,Clear,0,2013-07-02 15:53:00
11:53 AM,77.0,55.9,48,30.09,10.0,Calm,Calm,-,N/A,,Clear,0,2013-07-02 16:53:00
12:53 PM,79.0,55.9,45,30.07,10.0,SSE,6.9,-,N/A,,Clear,160,2013-07-02 17:53:00
1:53 PM,82.0,55.9,41,30.06,10.0,Variable,6.9,-,N/A,,Partly Cloudy,0,2013-07-02 18:53:00
2:53 PM,80.1,54.0,40,30.05,10.0,ENE,5.8,-,N/A,,Mostly Cloudy,60,2013-07-02 19:53:00
3:53 PM,81.0,54.0,39,30.04,10.0,ENE,5.8,-,N/A,,Partly Cloudy,70,2013-07-02 20:53:00
4:53 PM,80.1,53.1,39,30.04,10.0,ENE,5.8,-,N/A,,Partly Cloudy,60,2013-07-02 21:53:00
5:53 PM,79.0,55.0,44,30.04,10.0,ENE,9.2,-,N/A,,Clear,70,2013-07-02 22:53:00
6:53 PM,78.1,55.9,46,30.03,10.0,ENE,10.4,-,N/A,,Clear,70,2013-07-02 23:53:00
7:53 PM,75.9,55.0,48,30.04,10.0,East,5.8,-,N/A,,Clear,100,2013-07-03 00:53:00
8:53 PM,72.0,55.0,55,30.03,10.0,East,4.6,-,N/A,,Clear,100,2013-07-03 01:53:00
9:53 PM,69.1,57.0,65,30.05,10.0,ESE,5.8,-,N/A,,Clear,120,2013-07-03 02:53:00
10:53 PM,66.0,57.0,73,30.06,10.0,ESE,4.6,-,N/A,,Clear,120,2013-07-03 03:53:00
11:53 PM,64.9,55.9,73,30.06,10.0,ESE,4.6,-,N/A,,Clear,110,2013-07-03 04:53:00